Time;durP1;ratioP1;P1;durP2;ratioP2;P2;SDS_P1;SDS_P2;PMS_P1;PMS_P2;Temp;Humidity;BMP_temperature;BMP_pressure;BME280_temperature;BME280_humidity;BME280_pressure;Samples;Min_cycle;Max_cycle;Signal;HPM_P1;HPM_P2
2022/08/14 00:01:54;;;;;;;9.15;8.35;;;20.40;99.90;;;;;;4979284;28;89634;-32
2022/08/14 00:04:19;;;;;;;11.00;7.85;;;20.40;99.90;;;;;;4982447;28;87787;-32
2022/08/14 00:06:45;;;;;;;8.75;7.28;;;20.40;99.90;;;;;;4981713;28;90169;-30
2022/08/14 00:09:11;;;;;;;8.13;7.38;;;20.40;99.90;;;;;;4980968;28;89617;-37
2022/08/14 00:11:37;;;;;;;12.80;9.27;;;20.30;99.90;;;;;;4982090;28;90443;-31
2022/08/14 00:14:03;;;;;;;8.35;7.68;;;20.30;99.90;;;;;;4981158;28;89313;-33
2022/08/14 00:16:31;;;;;;;9.57;8.77;;;20.30;99.90;;;;;;4981780;28;90161;-31
2022/08/14 00:18:57;;;;;;;9.32;8.40;;;20.40;99.90;;;;;;4981312;28;90765;-32
2022/08/14 00:21:22;;;;;;;9.55;8.73;;;20.30;99.90;;;;;;4979942;28;91140;-36
2022/08/14 00:23:50;;;;;;;10.38;9.48;;;20.30;99.90;;;;;;5024431;22;90009;-33
2022/08/14 00:26:16;;;;;;;8.32;7.60;;;20.30;99.90;;;;;;5001490;28;89270;-33
2022/08/14 00:28:41;;;;;;;10.35;9.43;;;20.30;99.90;;;;;;5001367;28;90186;-32
2022/08/14 00:31:07;;;;;;;8.38;7.68;;;20.20;99.90;;;;;;5001652;28;89577;-35
2022/08/14 00:33:33;;;;;;;16.75;10.48;;;20.20;99.90;;;;;;4999919;28;88243;-33
2022/08/14 00:35:58;;;;;;;10.07;8.52;;;20.10;99.90;;;;;;5000629;28;90568;-33
2022/08/14 00:38:24;;;;;;;14.02;9.70;;;20.00;99.90;;;;;;5001057;28;90938;-32
2022/08/14 00:40:50;;;;;;;10.80;9.52;;;19.90;99.90;;;;;;5000995;28;89755;-32
2022/08/14 00:43:15;;;;;;;9.95;9.15;;;19.80;99.90;;;;;;5000455;28;88105;-33
2022/08/14 00:45:42;;;;;;;10.00;9.05;;;19.70;99.90;;;;;;5000471;28;90316;-32
2022/08/14 00:48:09;;;;;;;11.98;9.13;;;19.60;99.90;;;;;;5001084;28;90292;-33
2022/08/14 00:50:35;;;;;;;10.50;9.57;;;19.60;99.90;;;;;;5001258;28;89256;-33
2022/08/14 00:53:00;;;;;;;12.57;9.98;;;19.50;99.90;;;;;;5000901;28;88086;-35
2022/08/14 00:55:27;;;;;;;10.50;9.50;;;19.40;99.90;;;;;;4999887;28;90456;-35
2022/08/14 01:00:39;;;;;;;10.57;9.55;;;19.30;99.90;;;;;;5000310;28;89680;-32
2022/08/14 01:03:06;;;;;;;10.73;9.73;;;19.30;99.90;;;;;;5001799;28;88929;-33
2022/08/14 01:05:33;;;;;;;11.05;9.95;;;19.20;99.90;;;;;;5000700;28;89134;-31
2022/08/14 01:07:59;;;;;;;11.27;10.25;;;19.30;99.90;;;;;;4999577;28;90406;-33
2022/08/14 01:10:49;;;;;;;12.52;11.27;;;19.20;99.90;;;;;;4999646;28;90866;-31
2022/08/14 01:13:15;;;;;;;;;;;19.30;99.90;;;;;;4999949;28;88998;-34
2022/08/14 01:15:45;;;;;;;10.55;9.27;;;19.30;99.90;;;;;;5002388;28;90974;-30
2022/08/14 01:21:05;;;;;;;12.23;9.13;;;19.40;99.90;;;;;;4999865;28;89041;-32
2022/08/14 01:23:32;;;;;;;10.25;9.30;;;19.40;99.90;;;;;;4986317;28;89663;-31
2022/08/14 01:25:58;;;;;;;10.67;9.67;;;19.40;99.90;;;;;;5000876;28;88946;-33
2022/08/14 01:28:28;;;;;;;11.68;8.95;;;19.40;99.90;;;;;;5000033;28;89641;-32
2022/08/14 01:30:56;;;;;;;10.88;9.60;;;19.40;99.90;;;;;;4999915;28;89310;-34
2022/08/14 01:33:27;;;;;;;9.90;9.00;;;19.30;99.90;;;;;;4999109;28;90177;-33
2022/08/14 01:35:56;;;;;;;10.75;9.68;;;19.30;99.90;;;;;;4999949;28;91246;-33
2022/08/14 01:38:24;;;;;;;10.73;9.73;;;19.30;99.90;;;;;;4999272;28;89702;-35
2022/08/14 01:40:50;;;;;;;10.43;9.53;;;19.30;99.90;;;;;;5000012;28;89560;-33
2022/08/14 01:43:16;;;;;;;11.38;10.15;;;19.30;99.90;;;;;;5000248;28;89296;-30
2022/08/14 01:45:43;;;;;;;11.55;10.43;;;19.30;99.90;;;;;;4998371;28;90092;-33
2022/08/14 01:48:10;;;;;;;10.40;9.23;;;19.20;99.90;;;;;;4998954;28;90072;-31
2022/08/14 01:50:36;;;;;;;10.77;9.68;;;19.20;99.90;;;;;;5000010;28;89420;-34
2022/08/14 01:53:03;;;;;;;10.38;9.48;;;19.20;99.90;;;;;;5000280;28;89872;-33
2022/08/14 01:55:30;;;;;;;10.27;9.27;;;19.10;99.90;;;;;;4999149;28;89824;-32
2022/08/14 01:57:56;;;;;;;11.07;10.13;;;19.10;99.90;;;;;;4999441;28;91129;-32
2022/08/14 02:00:23;;;;;;;10.55;9.70;;;19.00;99.90;;;;;;4998499;28;91651;-35
2022/08/14 02:02:49;;;;;;;12.13;10.93;;;19.00;99.90;;;;;;4999419;28;89632;-31
2022/08/14 02:05:15;;;;;;;10.35;9.40;;;19.00;99.90;;;;;;4998791;28;90322;-35
2022/08/14 02:07:42;;;;;;;11.05;10.05;;;18.90;99.90;;;;;;4986532;28;89881;-33
2022/08/14 02:10:10;;;;;;;12.00;10.90;;;18.90;99.90;;;;;;4999072;28;89695;-32
2022/08/14 02:12:36;;;;;;;12.43;11.23;;;18.80;99.90;;;;;;4998627;28;88191;-31
2022/08/14 02:15:08;;;;;;;13.18;10.55;;;18.80;99.90;;;;;;4999340;28;90442;-32
2022/08/14 02:17:34;;;;;;;12.48;11.07;;;18.80;99.90;;;;;;4999171;28;90115;-35
2022/08/14 02:19:59;;;;;;;10.48;9.38;;;18.80;99.90;;;;;;4999194;28;90900;-35
2022/08/14 02:22:26;;;;;;;10.77;9.77;;;18.80;99.90;;;;;;4996265;28;89279;-33
2022/08/14 02:24:52;;;;;;;12.45;11.15;;;18.70;99.90;;;;;;5000272;28;90320;-33
2022/08/14 02:27:19;;;;;;;12.52;11.38;;;18.70;99.90;;;;;;4997665;28;89725;-33
2022/08/14 02:29:46;;;;;;;10.90;10.00;;;18.70;99.90;;;;;;4999003;28;89594;-32
2022/08/14 02:32:12;;;;;;;11.27;10.17;;;18.70;99.90;;;;;;4999115;28;87693;-36
2022/08/14 02:34:37;;;;;;;10.95;9.93;;;18.60;99.90;;;;;;4998709;28;90108;-32
2022/08/14 02:37:11;;;;;;;12.93;11.57;;;18.70;99.90;;;;;;4999283;28;89153;-36
2022/08/14 02:39:42;;;;;;;10.57;9.52;;;18.70;99.90;;;;;;4998258;28;90140;-32
2022/08/14 02:42:11;;;;;;;11.32;9.98;;;18.70;99.90;;;;;;4999088;28;89367;-30
2022/08/14 02:44:39;;;;;;;15.52;10.45;;;18.70;99.90;;;;;;4999069;28;92958;-34
2022/08/14 02:47:07;;;;;;;11.63;10.52;;;18.70;99.90;;;;;;4997220;28;90600;-35
2022/08/14 02:49:33;;;;;;;11.70;10.50;;;18.70;99.90;;;;;;4997971;28;89360;-36
2022/08/14 02:51:59;;;;;;;12.00;10.82;;;18.60;99.90;;;;;;4998869;28;91546;-30
2022/08/14 02:54:26;;;;;;;12.48;11.27;;;18.60;99.90;;;;;;4998180;28;90196;-31
2022/08/14 02:56:53;;;;;;;13.10;11.90;;;18.60;99.90;;;;;;4998054;28;90290;-32
2022/08/14 02:59:20;;;;;;;12.63;11.07;;;18.50;99.90;;;;;;4998168;28;89765;-31
2022/08/14 03:01:46;;;;;;;12.13;10.93;;;18.40;99.90;;;;;;4998607;28;90823;-32
2022/08/14 03:04:12;;;;;;;12.82;11.63;;;18.30;99.90;;;;;;4997737;28;90230;-35
2022/08/14 03:06:42;;;;;;;12.43;11.13;;;18.30;99.90;;;;;;4998682;28;89812;-31
2022/08/14 03:09:08;;;;;;;11.48;10.30;;;18.20;99.90;;;;;;4998585;28;90436;-34
2022/08/14 03:11:34;;;;;;;11.80;10.75;;;18.20;99.90;;;;;;4996857;28;89361;-35
2022/08/14 03:14:00;;;;;;;14.18;10.45;;;18.20;99.90;;;;;;4998665;28;90314;-31
2022/08/14 03:16:27;;;;;;;14.38;12.05;;;18.10;99.90;;;;;;4998182;28;90696;-31
2022/08/14 03:18:55;;;;;;;14.15;12.65;;;18.10;99.90;;;;;;4997950;28;89936;-34
2022/08/14 03:21:21;;;;;;;;;;;18.10;99.90;;;;;;4998225;28;89397;-30
2022/08/14 03:23:49;;;;;;;14.93;12.85;;;18.20;99.90;;;;;;4999639;28;90266;-34
2022/08/14 03:26:19;;;;;;;16.05;12.60;;;18.20;99.90;;;;;;4998096;28;89812;-31
2022/08/14 03:28:50;;;;;;;13.07;11.85;;;18.10;99.90;;;;;;4998534;28;89933;-30
2022/08/14 03:31:17;;;;;;;13.13;11.85;;;18.10;99.90;;;;;;4998361;28;88819;-30
2022/08/14 03:33:43;;;;;;;15.70;14.10;;;18.10;99.90;;;;;;4997796;28;90546;-34
2022/08/14 03:36:13;;;;;;;12.32;11.13;;;18.00;99.90;;;;;;4995472;28;90461;-32
2022/08/14 03:38:44;;;;;;;14.13;12.52;;;18.00;99.90;;;;;;4997578;28;90329;-31
2022/08/14 03:41:13;;;;;;;13.38;12.07;;;18.10;99.90;;;;;;4998306;28;88775;-35
2022/08/14 03:43:42;;;;;;;13.85;12.35;;;18.10;99.90;;;;;;4997405;28;88918;-32
2022/08/14 03:46:10;;;;;;;14.57;13.18;;;18.10;99.90;;;;;;4997381;28;89352;-30
2022/08/14 03:48:37;;;;;;;15.35;13.43;;;18.00;99.90;;;;;;4997224;28;89446;-34
2022/08/14 03:51:03;;;;;;;13.63;12.20;;;18.00;99.90;;;;;;4997828;28;88259;-33
2022/08/14 03:53:29;;;;;;;12.65;11.52;;;18.00;99.90;;;;;;4997687;28;89975;-29
2022/08/14 03:55:57;;;;;;;15.60;14.10;;;17.90;99.90;;;;;;4998004;28;90088;-31
2022/08/14 03:58:23;;;;;;;13.15;11.88;;;17.90;99.90;;;;;;4996972;28;89070;-31
2022/08/14 04:00:49;;;;;;;15.68;13.40;;;18.00;99.90;;;;;;4996965;28;89450;-33
2022/08/14 04:03:15;;;;;;;15.63;14.02;;;18.00;99.90;;;;;;4996992;28;90045;-32
2022/08/14 04:05:41;;;;;;;13.93;12.55;;;18.00;99.90;;;;;;4997733;28;89688;-31
2022/08/14 04:08:10;;;;;;;16.13;13.93;;;18.00;99.90;;;;;;4997245;28;89741;-31
2022/08/14 04:10:37;;;;;;;15.70;14.00;;;18.10;99.90;;;;;;5000297;28;88641;-31
2022/08/14 04:13:04;;;;;;;18.48;14.60;;;18.10;99.90;;;;;;5001127;28;91049;-31
2022/08/14 04:15:33;;;;;;;15.07;13.73;;;18.20;99.90;;;;;;5001187;28;89849;-31
2022/08/14 04:18:07;;;;;;;15.90;14.50;;;18.20;99.90;;;;;;5001112;28;89679;-31
2022/08/14 04:20:34;;;;;;;14.70;13.23;;;18.30;99.90;;;;;;4999989;28;88049;-31
2022/08/14 04:23:00;;;;;;;13.45;12.07;;;18.30;99.90;;;;;;5000119;28;89054;-35
2022/08/14 04:25:26;;;;;;;13.65;12.35;;;18.20;99.90;;;;;;4999573;28;90636;-32
2022/08/14 04:27:53;;;;;;;14.75;13.23;;;18.20;99.90;;;;;;5000418;28;89603;-34
2022/08/14 04:30:19;;;;;;;15.43;14.00;;;18.20;99.90;;;;;;5000796;28;88108;-33
2022/08/14 04:32:45;;;;;;;15.52;13.93;;;18.20;99.90;;;;;;4999661;28;90088;-30
2022/08/14 04:35:10;;;;;;;14.13;12.73;;;18.30;99.90;;;;;;5000672;28;89978;-33
2022/08/14 04:45:49;;;;;;;14.70;13.20;;;18.60;99.90;;;;;;4999605;28;88783;-32
2022/08/14 04:48:17;;;;;;;15.25;13.35;;;18.70;99.90;;;;;;5000130;28;90334;-30
2022/08/14 04:50:46;;;;;;;14.13;12.55;;;18.70;99.90;;;;;;5000147;28;90209;-29
2022/08/14 04:53:19;;;;;;;14.00;12.60;;;18.60;99.90;;;;;;4999963;28;90602;-37
2022/08/14 04:55:47;;;;;;;13.23;11.60;;;18.60;99.90;;;;;;5000200;28;89564;-31
2022/08/14 04:58:16;;;;;;;14.35;13.02;;;18.70;99.90;;;;;;4999857;28;89760;-32
2022/08/14 05:00:44;;;;;;;12.88;11.57;;;18.70;99.90;;;;;;5000116;28;88248;-34
2022/08/14 05:03:09;;;;;;;18.13;12.95;;;18.80;99.90;;;;;;5000242;28;90430;-32
2022/08/14 05:05:35;;;;;;;16.65;14.07;;;18.90;99.90;;;;;;4999970;28;89813;-33
2022/08/14 05:08:11;;;;;;;14.02;12.65;;;19.20;99.90;;;;;;5000267;28;90121;-31
2022/08/14 05:10:45;;;;;;;14.30;13.00;;;19.40;99.90;;;;;;5000355;28;88936;-34
2022/08/14 05:13:12;;;;;;;15.90;13.68;;;19.60;99.90;;;;;;4987583;28;90523;-35
2022/08/14 05:15:39;;;;;;;15.93;13.55;;;19.80;99.90;;;;;;4999681;28;90615;-33
2022/08/14 05:18:12;;;;;;;14.43;13.03;;;19.90;99.90;;;;;;4999445;28;90064;-32
2022/08/14 05:20:39;;;;;;;14.52;13.13;;;20.10;99.90;;;;;;4999643;28;89343;-33
2022/08/14 05:23:06;;;;;;;14.87;13.47;;;20.20;99.90;;;;;;4998743;28;90322;-35
2022/08/14 05:25:33;;;;;;;14.70;13.20;;;20.30;99.90;;;;;;4999777;28;88727;-35
2022/08/14 05:28:18;;;;;;;12.52;11.32;;;20.40;99.90;;;;;;5000024;28;90261;-32
2022/08/14 05:30:54;;;;;;;14.13;12.80;;;20.50;99.90;;;;;;4999378;28;88886;-35
2022/08/14 05:33:23;;;;;;;14.95;13.40;;;20.60;99.90;;;;;;4998918;28;90178;-34
2022/08/14 05:35:50;;;;;;;15.52;12.75;;;20.60;99.90;;;;;;4999603;28;89670;-33
2022/08/14 05:38:19;;;;;;;14.60;12.75;;;20.60;99.90;;;;;;4999925;28;89812;-32
2022/08/14 05:40:46;;;;;;;14.88;13.32;;;20.60;99.90;;;;;;5000004;28;90034;-31
2022/08/14 05:43:13;;;;;;;15.80;14.15;;;20.50;99.90;;;;;;4998345;28;90429;-36
2022/08/14 05:45:38;;;;;;;15.82;14.13;;;20.50;99.90;;;;;;4998481;28;89545;-36
2022/08/14 05:48:05;;;;;;;23.05;14.27;;;20.50;99.90;;;;;;4999812;28;90100;-30
2022/08/14 05:50:32;;;;;;;18.65;13.93;;;20.50;99.90;;;;;;4999134;28;88780;-36
2022/08/14 05:52:58;;;;;;;17.73;15.25;;;20.50;99.90;;;;;;4998900;28;90229;-35
2022/08/14 05:55:24;;;;;;;19.75;15.27;;;20.50;99.90;;;;;;4999313;28;89729;-32
2022/08/14 05:57:57;;;;;;;16.05;14.25;;;20.50;99.90;;;;;;4998830;28;89456;-35
2022/08/14 06:00:32;;;;;;;23.95;13.73;;;20.60;99.90;;;;;;4999075;28;90454;-33
2022/08/14 06:02:59;;;;;;;15.13;13.48;;;20.60;99.90;;;;;;4986096;28;90277;-32
2022/08/14 06:05:26;;;;;;;14.47;13.17;;;20.70;99.90;;;;;;4998210;28;91356;-32
2022/08/14 06:07:52;;;;;;;17.13;14.20;;;20.80;99.90;;;;;;4999153;28;90390;-34
2022/08/14 06:10:17;;;;;;;15.98;14.48;;;20.90;99.90;;;;;;4998261;28;89296;-34
2022/08/14 06:12:44;;;;;;;15.80;12.95;;;20.90;99.90;;;;;;4998950;28;90185;-34
2022/08/14 06:15:10;;;;;;;15.05;13.25;;;21.00;99.90;;;;;;4999288;28;90280;-34
2022/08/14 06:17:46;;;;;;;18.30;16.05;;;21.00;99.90;;;;;;4998149;28;90773;-32
2022/08/14 06:20:13;;;;;;;14.35;12.95;;;21.10;99.90;;;;;;4998845;28;89199;-34
2022/08/14 06:22:40;;;;;;;15.00;13.50;;;21.10;99.90;;;;;;4999148;28;90100;-33
2022/08/14 06:25:07;;;;;;;16.47;14.87;;;21.20;99.90;;;;;;4998585;28;88545;-34
2022/08/14 06:27:41;;;;;;;16.38;14.68;;;21.30;99.90;;;;;;4998320;28;89306;-32
2022/08/14 06:30:10;;;;;;;15.40;13.93;;;21.40;99.90;;;;;;4984296;28;89041;-36
2022/08/14 06:32:36;;;;;;;13.98;12.60;;;21.50;99.90;;;;;;4998523;28;89541;-32
2022/08/14 06:35:07;;;;;;;20.02;14.63;;;21.60;99.90;;;;;;4998473;28;89676;-34
2022/08/14 06:37:48;;;;;;;15.18;13.63;;;21.70;99.90;;;;;;4998185;28;89201;-31
2022/08/14 06:40:24;;;;;;;14.00;12.70;;;21.80;99.90;;;;;;4998213;28;89658;-32
2022/08/14 06:42:51;;;;;;;13.32;11.38;;;21.90;99.90;;;;;;4998037;28;89950;-35
2022/08/14 06:45:17;;;;;;;13.02;11.82;;;22.00;99.90;;;;;;4997955;28;89685;-35
2022/08/14 06:47:44;;;;;;;16.35;12.20;;;22.10;99.90;;;;;;4998251;28;89575;-32
2022/08/14 06:50:16;;;;;;;12.73;11.52;;;22.20;99.90;;;;;;4998465;28;89916;-32
2022/08/14 06:52:42;;;;;;;15.45;12.93;;;22.40;99.90;;;;;;4997688;28;90808;-31
2022/08/14 06:55:10;;;;;;;12.90;11.65;;;22.60;99.90;;;;;;4997933;28;90601;-37
2022/08/14 06:57:37;;;;;;;;;;;22.80;99.90;;;;;;4998889;28;90492;-34
2022/08/14 07:00:06;;;;;;;12.82;11.55;;;22.90;99.90;;;;;;4998756;28;89466;-34
2022/08/14 07:08:05;;;;;;;12.32;11.02;;;23.50;99.90;;;;;;4994259;28;89583;-37
2022/08/14 07:10:31;;;;;;;12.10;11.02;;;23.70;99.90;;;;;;4997689;28;89513;-34
2022/08/14 07:12:57;;;;;;;10.73;9.73;;;23.90;99.90;;;;;;4997021;28;89852;-33
2022/08/14 07:15:23;;;;;;;11.63;10.50;;;24.00;99.90;;;;;;4997586;28;89781;-36
2022/08/14 07:17:50;;;;;;;12.15;11.05;;;24.20;99.90;;;;;;4997472;28;89543;-34
2022/08/14 07:20:19;;;;;;;12.93;11.75;;;24.30;99.90;;;;;;4997281;28;90784;-33
2022/08/14 07:22:46;;;;;;;20.60;11.77;;;24.50;99.90;;;;;;4997478;28;91124;-33
2022/08/14 07:25:12;;;;;;;11.60;10.40;;;24.60;99.90;;;;;;4997822;28;89899;-35
2022/08/14 07:27:39;;;;;;;12.02;10.90;;;24.80;99.90;;;;;;4996965;28;89949;-34
2022/08/14 07:30:05;;;;;;;10.93;9.63;;;25.00;99.90;;;;;;5000383;28;88360;-33
2022/08/14 07:32:31;;;;;;;10.65;9.70;;;25.20;99.90;;;;;;4998869;28;90692;-34
2022/08/14 07:34:57;;;;;;;10.65;9.75;;;25.40;99.90;;;;;;5001016;28;89848;-33
2022/08/14 07:37:23;;;;;;;9.65;8.77;;;25.60;99.90;;;;;;5001301;28;89131;-36
2022/08/14 07:39:48;;;;;;;12.82;10.00;;;25.90;99.90;;;;;;5001905;28;88773;-33
2022/08/14 07:42:14;;;;;;;11.80;9.48;;;26.20;99.90;;;;;;5000112;28;89900;-33
2022/08/14 07:44:39;;;;;;;9.82;8.82;;;26.40;99.90;;;;;;5003931;28;91124;-33
2022/08/14 07:47:05;;;;;;;9.90;8.98;;;26.60;99.90;;;;;;5003193;28;90495;-32
2022/08/14 07:49:32;;;;;;;10.70;8.68;;;26.80;99.90;;;;;;5003508;28;89721;-35
2022/08/14 07:52:00;;;;;;;28.58;9.88;;;26.90;99.90;;;;;;5006264;28;90230;-34
2022/08/14 07:54:25;;;;;;;11.20;9.03;;;27.10;99.90;;;;;;5003701;28;91290;-34
2022/08/14 07:56:51;;;;;;;10.05;8.98;;;27.20;99.90;;;;;;5008599;28;89434;-34
2022/08/14 07:59:17;;;;;;;9.68;8.77;;;27.30;99.90;;;;;;5005916;28;88279;-32
2022/08/14 08:01:43;;;;;;;10.43;9.40;;;27.40;99.90;;;;;;5004057;28;89887;-35
2022/08/14 08:04:10;;;;;;;10.20;9.32;;;27.50;99.90;;;;;;5001584;28;89912;-35
2022/08/14 08:06:37;;;;;;;10.90;10.00;;;27.40;99.90;;;;;;5001582;28;89497;-33
2022/08/14 08:09:03;;;;;;;9.38;8.57;;;27.40;99.90;;;;;;4995808;28;88997;-36
2022/08/14 08:11:34;;;;;;;9.10;8.20;;;27.50;99.90;;;;;;4999944;28;90490;-33
2022/08/14 08:14:05;;;;;;;9.15;8.35;;;27.70;99.90;;;;;;5005776;28;89872;-32
2022/08/14 08:16:32;;;;;;;8.75;7.80;;;27.80;99.90;;;;;;4999228;28;89942;-34
2022/08/14 08:18:58;;;;;;;8.75;7.97;;;27.90;99.90;;;;;;4999220;28;89546;-34
2022/08/14 08:21:25;;;;;;;12.70;8.60;;;28.00;99.90;;;;;;4998557;28;90542;-35
2022/08/14 08:23:52;;;;;;;9.10;8.37;;;28.10;99.90;;;;;;5001808;28;89478;-33
2022/08/14 08:26:18;;;;;;;8.63;7.82;;;28.30;99.90;;;;;;4996385;28;89394;-35
2022/08/14 08:28:55;;;;;;;8.77;8.05;;;28.40;99.90;;;;;;4998129;28;88450;-33
2022/08/14 08:31:21;;;;;;;8.35;7.65;;;28.60;99.90;;;;;;4998874;28;89964;-35
2022/08/14 08:33:51;;;;;;;8.98;8.27;;;28.50;99.90;;;;;;5007064;28;91279;-34
2022/08/14 08:36:17;;;;;;;11.90;7.22;;;28.50;99.90;;;;;;5001856;28;90633;-34
2022/08/14 08:38:44;;;;;;;9.18;8.10;;;28.60;99.60;;;;;;5000695;28;88007;-32
2022/08/14 08:41:10;;;;;;;9.00;8.30;;;28.70;97.10;;;;;;5004680;28;89948;-36
2022/08/14 08:43:36;;;;;;;7.93;7.13;;;28.80;97.50;;;;;;5012060;28;89843;-33
2022/08/14 08:46:11;;;;;;;8.90;8.20;;;29.00;97.00;;;;;;5012205;28;87976;-32
2022/08/14 08:48:45;;;;;;;8.15;7.40;;;29.10;95.60;;;;;;5010166;28;88294;-33
2022/08/14 08:51:21;;;;;;;8.30;7.43;;;29.10;93.50;;;;;;5008705;28;89130;-32
2022/08/14 08:53:55;;;;;;;10.75;7.32;;;29.10;93.20;;;;;;5007372;28;90273;-33
2022/08/14 08:56:33;;;;;;;7.18;6.57;;;29.10;93.60;;;;;;4998297;28;89468;-35
2022/08/14 08:58:59;;;;;;;7.97;6.75;;;29.20;92.10;;;;;;4998508;28;89910;-35
2022/08/14 09:01:29;;;;;;;7.13;6.63;;;29.10;91.20;;;;;;4994859;28;90493;-35
2022/08/14 09:04:03;;;;;;;7.00;6.40;;;29.20;89.30;;;;;;4997369;28;89924;-35
2022/08/14 09:06:28;;;;;;;7.78;7.07;;;29.20;91.90;;;;;;4997427;28;90512;-34
2022/08/14 09:08:54;;;;;;;7.93;7.22;;;29.10;90.20;;;;;;4998263;28;90185;-33
2022/08/14 09:11:22;;;;;;;7.40;6.80;;;29.20;87.50;;;;;;4997915;28;90172;-34
2022/08/14 09:13:52;;;;;;;7.40;6.78;;;29.30;90.30;;;;;;4997690;28;89588;-34
2022/08/14 09:16:24;;;;;;;7.30;6.80;;;29.30;89.30;;;;;;4997896;28;89885;-34
2022/08/14 09:18:50;;;;;;;7.78;7.18;;;29.30;85.60;;;;;;4998479;28;90158;-35
2022/08/14 09:21:17;;;;;;;7.15;6.55;;;29.20;87.50;;;;;;4997688;28;90229;-33
2022/08/14 09:23:42;;;;;;;7.43;6.78;;;29.30;86.20;;;;;;4995977;28;90280;-33
2022/08/14 09:26:08;;;;;;;6.30;5.82;;;29.50;84.20;;;;;;4997876;28;90346;-35
2022/08/14 09:28:34;;;;;;;6.53;5.97;;;29.60;81.50;;;;;;4997586;28;89238;-33
2022/08/14 09:31:00;;;;;;;6.97;6.32;;;29.80;80.50;;;;;;4997041;28;90217;-34
2022/08/14 09:33:35;;;;;;;8.88;7.22;;;29.80;79.70;;;;;;4997763;28;89742;-34
2022/08/14 09:36:46;;;;;;;6.90;6.30;;;29.90;76.70;;;;;;4998015;28;89929;-34
2022/08/14 09:39:39;;;;;;;8.27;7.50;;;29.90;78.30;;;;;;4985674;28;90065;-33
2022/08/14 09:42:53;;;;;;;8.18;7.35;;;29.90;78.00;;;;;;4997148;28;90796;-34
2022/08/14 09:45:27;;;;;;;7.28;6.55;;;29.90;75.70;;;;;;4964469;28;90568;-33
2022/08/14 09:47:55;;;;;;;7.60;6.68;;;29.90;76.60;;;;;;4997889;28;89157;-33
2022/08/14 09:50:30;;;;;;;7.50;6.93;;;29.90;76.20;;;;;;4996790;28;90477;-35
2022/08/14 09:53:02;;;;;;;8.35;7.65;;;30.00;75.80;;;;;;4997499;28;90602;-36
2022/08/14 09:55:34;;;;;;;8.00;7.28;;;30.00;74.70;;;;;;4996945;28;88715;-33
2022/08/14 09:58:15;;;;;;;7.03;6.40;;;30.10;74.40;;;;;;4996973;28;89830;-34
2022/08/14 10:00:53;;;;;;;8.77;8.02;;;30.20;73.40;;;;;;4996133;28;88605;-34
2022/08/14 10:03:32;;;;;;;8.05;7.35;;;30.30;74.60;;;;;;4996509;28;90384;-33
2022/08/14 10:06:24;;;;;;;9.27;8.52;;;30.40;72.10;;;;;;4996294;28;89945;-35
2022/08/14 10:08:54;;;;;;;8.23;7.50;;;30.20;75.60;;;;;;4997803;28;88534;-33
2022/08/14 10:11:28;;;;;;;8.95;8.15;;;30.20;76.70;;;;;;4998402;28;88752;-36
2022/08/14 10:14:09;;;;;;;10.15;9.13;;;30.10;75.10;;;;;;4996938;28;90735;-33
2022/08/14 10:16:41;;;;;;;7.78;7.18;;;30.00;74.50;;;;;;4996596;28;90902;-34
2022/08/14 10:19:09;;;;;;;9.40;8.50;;;30.00;74.30;;;;;;4997524;28;90355;-36
2022/08/14 10:21:38;;;;;;;8.57;7.97;;;30.00;74.30;;;;;;4997260;28;88240;-35
2022/08/14 10:24:08;;;;;;;8.10;7.40;;;29.90;72.90;;;;;;5000227;28;90411;-33
2022/08/14 10:26:34;;;;;;;11.55;9.15;;;29.90;72.40;;;;;;4997918;28;89619;-33
2022/08/14 10:29:06;;;;;;;8.00;7.40;;;29.80;73.70;;;;;;4996929;28;90314;-33
2022/08/14 10:31:33;;;;;;;9.00;8.20;;;29.70;76.70;;;;;;4997639;28;90131;-33
2022/08/14 10:34:07;;;;;;;8.82;8.07;;;29.80;77.60;;;;;;4995997;28;90665;-35
2022/08/14 10:36:40;;;;;;;8.93;8.20;;;29.90;75.30;;;;;;4996741;28;89560;-36
2022/08/14 10:39:18;;;;;;;8.05;7.28;;;29.90;75.80;;;;;;4996798;28;89537;-36
2022/08/14 10:41:45;;;;;;;8.93;8.23;;;29.80;75.90;;;;;;5004968;28;90225;-33
2022/08/14 10:44:13;;;;;;;8.98;8.18;;;30.00;76.10;;;;;;5004969;28;91722;-34
2022/08/14 10:46:40;;;;;;;8.55;7.78;;;30.10;76.60;;;;;;5007927;28;89857;-33
2022/08/14 10:49:08;;;;;;;8.33;7.73;;;30.30;76.40;;;;;;5001509;28;89531;-33
2022/08/14 10:51:34;;;;;;;9.38;8.48;;;30.30;73.00;;;;;;4996308;28;88849;-36
2022/08/14 10:54:08;;;;;;;7.32;6.63;;;30.20;71.40;;;;;;4995974;28;90640;-35
2022/08/14 10:56:34;;;;;;;7.70;6.95;;;30.00;71.10;;;;;;4996099;28;89925;-34
2022/08/14 10:59:04;;;;;;;7.43;6.75;;;29.90;72.50;;;;;;4997805;28;90073;-33
2022/08/14 11:01:32;;;;;;;7.35;6.85;;;30.00;71.20;;;;;;5008328;28;87678;-33
2022/08/14 11:03:57;;;;;;;9.35;8.52;;;30.10;71.40;;;;;;5006966;28;89219;-33
2022/08/14 11:06:23;;;;;;;11.02;7.60;;;30.30;70.00;;;;;;4999601;28;90859;-34
2022/08/14 11:08:50;;;;;;;7.25;6.65;;;30.40;69.70;;;;;;4996955;28;89574;-34
2022/08/14 11:11:17;;;;;;;8.55;7.22;;;30.50;68.70;;;;;;4996880;28;88306;-35
2022/08/14 11:13:45;;;;;;;7.85;7.25;;;30.50;67.70;;;;;;4995545;28;89795;-34
2022/08/14 11:16:13;;;;;;;9.73;7.10;;;30.50;67.90;;;;;;4996633;28;89499;-36
2022/08/14 11:18:44;;;;;;;8.18;7.57;;;30.50;68.10;;;;;;4998177;28;90194;-36
2022/08/14 11:21:14;;;;;;;8.00;7.18;;;30.60;67.60;;;;;;5002086;28;87865;-34
2022/08/14 11:23:40;;;;;;;8.00;7.38;;;30.70;67.90;;;;;;5004412;28;90588;-33
2022/08/14 11:26:07;;;;;;;8.88;6.75;;;30.70;65.20;;;;;;5000320;28;89337;-34
2022/08/14 11:28:37;;;;;;;8.48;7.57;;;30.60;64.60;;;;;;4998972;28;89412;-36
2022/08/14 11:31:06;;;;;;;8.73;8.02;;;30.60;64.10;;;;;;4998859;28;90564;-34
2022/08/14 11:33:34;;;;;;;7.65;6.95;;;30.50;65.60;;;;;;4999675;28;91240;-36
2022/08/14 11:36:01;;;;;;;7.13;6.22;;;30.60;64.30;;;;;;4999188;28;89467;-33
2022/08/14 11:38:34;;;;;;;11.43;6.35;;;30.50;64.20;;;;;;4998851;28;90241;-36
2022/08/14 11:41:00;;;;;;;7.95;7.32;;;30.30;65.30;;;;;;4999666;28;89221;-33
2022/08/14 11:43:27;;;;;;;6.15;5.65;;;30.40;65.00;;;;;;4999274;28;89530;-35
2022/08/14 11:45:52;;;;;;;7.50;6.85;;;30.50;64.10;;;;;;5000344;28;90577;-33
2022/08/14 11:48:23;;;;;;;7.97;6.90;;;30.60;64.50;;;;;;4998604;28;89601;-34
2022/08/14 11:50:53;;;;;;;8.10;7.32;;;30.60;64.10;;;;;;4999190;28;89432;-37
2022/08/14 11:53:24;;;;;;;7.38;6.78;;;30.70;63.90;;;;;;4998582;28;90392;-33
2022/08/14 11:56:01;;;;;;;7.75;7.15;;;30.80;63.60;;;;;;4998675;28;91356;-33
2022/08/14 11:58:33;;;;;;;7.10;6.50;;;30.80;62.60;;;;;;4998145;28;90323;-33
2022/08/14 12:01:05;;;;;;;9.38;6.82;;;30.80;63.30;;;;;;4999459;28;88320;-34
2022/08/14 12:03:48;;;;;;;7.65;6.97;;;30.80;62.90;;;;;;4998782;28;90282;-36
2022/08/14 12:06:17;;;;;;;7.43;6.63;;;30.80;63.30;;;;;;4999089;28;89979;-35
2022/08/14 12:08:45;;;;;;;7.05;6.35;;;30.80;63.10;;;;;;4999450;28;89788;-34
2022/08/14 12:11:13;;;;;;;7.38;6.72;;;30.90;62.90;;;;;;4999065;28;89905;-36
2022/08/14 12:13:43;;;;;;;8.32;7.53;;;31.00;62.30;;;;;;4998677;28;91613;-36
2022/08/14 12:16:11;;;;;;;6.35;5.82;;;31.10;61.60;;;;;;4999699;28;89635;-33
2022/08/14 12:18:44;;;;;;;6.45;5.95;;;31.20;61.10;;;;;;4998514;28;89675;-34
2022/08/14 12:21:15;;;;;;;6.40;5.88;;;31.00;60.90;;;;;;4998922;28;89062;-36
2022/08/14 12:23:41;;;;;;;6.90;6.20;;;30.50;61.50;;;;;;5035651;22;90257;-33
2022/08/14 12:26:12;;;;;;;7.07;6.45;;;30.40;62.30;;;;;;5001818;28;88570;-34
2022/08/14 12:28:38;;;;;;;6.80;6.20;;;30.30;62.50;;;;;;4999892;28;89475;-35
2022/08/14 12:31:20;;;;;;;7.03;6.43;;;30.40;64.00;;;;;;4999418;28;88752;-32
2022/08/14 12:33:59;;;;;;;6.85;6.22;;;30.50;63.00;;;;;;5004868;28;90510;-34
2022/08/14 12:36:31;;;;;;;8.88;5.88;;;30.60;63.10;;;;;;5001778;28;89747;-35
2022/08/14 12:38:59;;;;;;;6.80;6.03;;;30.70;62.50;;;;;;4997562;28;89880;-34
2022/08/14 12:41:29;;;;;;;6.47;5.88;;;30.70;61.20;;;;;;4998619;28;88762;-36
2022/08/14 12:44:00;;;;;;;8.60;7.50;;;30.70;61.70;;;;;;4997856;28;89855;-36
2022/08/14 12:46:27;;;;;;;14.68;7.25;;;30.80;61.80;;;;;;4997152;28;90606;-34
2022/08/14 12:48:54;;;;;;;7.03;6.43;;;30.90;61.90;;;;;;4997979;28;90479;-34
2022/08/14 12:51:24;;;;;;;7.63;6.97;;;31.10;60.70;;;;;;5000816;28;89007;-33
2022/08/14 12:53:55;;;;;;;7.15;6.55;;;31.20;60.30;;;;;;4998395;28;90577;-35
2022/08/14 12:56:26;;;;;;;7.55;6.93;;;31.20;60.00;;;;;;4997702;28;90122;-36
2022/08/14 12:58:56;;;;;;;7.88;7.10;;;31.30;60.60;;;;;;4997718;28;89927;-36
2022/08/14 13:01:32;;;;;;;8.35;7.55;;;31.30;60.90;;;;;;5005461;28;88487;-34
2022/08/14 13:04:15;;;;;;;6.70;6.10;;;31.30;59.30;;;;;;5012114;28;90164;-33
2022/08/14 13:06:46;;;;;;;6.75;6.15;;;31.20;58.80;;;;;;5012317;28;89574;-34